sensor_id;sensor_type;location;lat;lon;timestamp;P1;durP1;ratioP1;P2;durP2;ratioP2
33475;SDS011;19814;48.224;11.422;2023-09-18T00:00:49;6.55;;;4.80;;
33475;SDS011;19814;48.224;11.422;2023-09-18T00:03:15;6.72;;;4.75;;
33475;SDS011;19814;48.224;11.422;2023-09-18T00:05:42;7.28;;;4.53;;
33475;SDS011;19814;48.224;11.422;2023-09-18T00:08:08;7.07;;;4.50;;
33475;SDS011;19814;48.224;11.422;2023-09-18T00:10:34;6.95;;;4.35;;
33475;SDS011;19814;48.224;11.422;2023-09-18T00:13:00;7.13;;;3.80;;
33475;SDS011;19814;48.224;11.422;2023-09-18T00:15:26;7.43;;;4.13;;
33475;SDS011;19814;48.224;11.422;2023-09-18T00:17:51;4.57;;;2.60;;
33475;SDS011;19814;48.224;11.422;2023-09-18T00:20:17;4.15;;;2.33;;
33475;SDS011;19814;48.224;11.422;2023-09-18T00:22:43;3.45;;;2.15;;
33475;SDS011;19814;48.224;11.422;2023-09-18T00:25:09;4.90;;;2.60;;
33475;SDS011;19814;48.224;11.422;2023-09-18T00:27:35;4.47;;;2.70;;
33475;SDS011;19814;48.224;11.422;2023-09-18T00:30:01;5.68;;;2.75;;
33475;SDS011;19814;48.224;11.422;2023-09-18T00:32:28;5.82;;;3.15;;
33475;SDS011;19814;48.224;11.422;2023-09-18T00:34:54;4.90;;;2.88;;
33475;SDS011;19814;48.224;11.422;2023-09-18T00:37:21;4.57;;;3.08;;
33475;SDS011;19814;48.224;11.422;2023-09-18T00:39:46;4.65;;;3.15;;
33475;SDS011;19814;48.224;11.422;2023-09-18T00:42:12;6.00;;;3.08;;
33475;SDS011;19814;48.224;11.422;2023-09-18T00:44:39;4.90;;;3.20;;
33475;SDS011;19814;48.224;11.422;2023-09-18T00:47:06;5.38;;;3.50;;
33475;SDS011;19814;48.224;11.422;2023-09-18T00:49:33;5.22;;;3.50;;
33475;SDS011;19814;48.224;11.422;2023-09-18T00:51:59;6.32;;;3.75;;
33475;SDS011;19814;48.224;11.422;2023-09-18T00:54:25;9.18;;;3.63;;
33475;SDS011;19814;48.224;11.422;2023-09-18T00:56:50;7.10;;;3.72;;
33475;SDS011;19814;48.224;11.422;2023-09-18T00:59:19;6.25;;;4.00;;
33475;SDS011;19814;48.224;11.422;2023-09-18T01:01:45;7.88;;;3.67;;
33475;SDS011;19814;48.224;11.422;2023-09-18T01:04:13;6.65;;;3.85;;
33475;SDS011;19814;48.224;11.422;2023-09-18T01:06:39;7.43;;;4.13;;
33475;SDS011;19814;48.224;11.422;2023-09-18T01:09:05;6.63;;;3.80;;
33475;SDS011;19814;48.224;11.422;2023-09-18T01:11:44;5.63;;;3.70;;
33475;SDS011;19814;48.224;11.422;2023-09-18T01:14:35;5.53;;;3.35;;
33475;SDS011;19814;48.224;11.422;2023-09-18T01:17:07;6.60;;;3.30;;
33475;SDS011;19814;48.224;11.422;2023-09-18T01:22:12;6.43;;;4.30;;
33475;SDS011;19814;48.224;11.422;2023-09-18T01:24:43;6.57;;;4.18;;
33475;SDS011;19814;48.224;11.422;2023-09-18T01:27:10;5.80;;;4.00;;
33475;SDS011;19814;48.224;11.422;2023-09-18T01:29:44;7.10;;;4.18;;
33475;SDS011;19814;48.224;11.422;2023-09-18T01:32:09;5.80;;;3.60;;
33475;SDS011;19814;48.224;11.422;2023-09-18T01:34:36;5.97;;;3.90;;
33475;SDS011;19814;48.224;11.422;2023-09-18T01:37:06;5.57;;;3.97;;
33475;SDS011;19814;48.224;11.422;2023-09-18T01:39:34;8.98;;;3.55;;
33475;SDS011;19814;48.224;11.422;2023-09-18T01:42:03;4.57;;;3.45;;
33475;SDS011;19814;48.224;11.422;2023-09-18T01:44:30;6.07;;;3.50;;
33475;SDS011;19814;48.224;11.422;2023-09-18T01:46:58;5.45;;;3.47;;
33475;SDS011;19814;48.224;11.422;2023-09-18T01:49:28;9.82;;;3.70;;
33475;SDS011;19814;48.224;11.422;2023-09-18T01:51:54;5.90;;;3.85;;
33475;SDS011;19814;48.224;11.422;2023-09-18T01:54:20;6.40;;;4.30;;
33475;SDS011;19814;48.224;11.422;2023-09-18T01:56:46;6.00;;;3.58;;
33475;SDS011;19814;48.224;11.422;2023-09-18T01:59:11;6.63;;;3.85;;
33475;SDS011;19814;48.224;11.422;2023-09-18T02:01:37;6.05;;;4.05;;
33475;SDS011;19814;48.224;11.422;2023-09-18T02:04:03;6.95;;;4.47;;
33475;SDS011;19814;48.224;11.422;2023-09-18T02:06:29;6.90;;;4.15;;
33475;SDS011;19814;48.224;11.422;2023-09-18T02:08:55;6.15;;;4.22;;
33475;SDS011;19814;48.224;11.422;2023-09-18T02:11:20;8.55;;;5.30;;
33475;SDS011;19814;48.224;11.422;2023-09-18T02:13:46;6.63;;;4.40;;
33475;SDS011;19814;48.224;11.422;2023-09-18T02:16:11;6.00;;;4.18;;
33475;SDS011;19814;48.224;11.422;2023-09-18T02:18:37;5.85;;;3.33;;
33475;SDS011;19814;48.224;11.422;2023-09-18T02:21:02;4.68;;;3.25;;
33475;SDS011;19814;48.224;11.422;2023-09-18T02:23:28;6.90;;;3.33;;
33475;SDS011;19814;48.224;11.422;2023-09-18T02:25:57;5.47;;;3.60;;
33475;SDS011;19814;48.224;11.422;2023-09-18T02:28:23;5.90;;;4.18;;
33475;SDS011;19814;48.224;11.422;2023-09-18T02:30:48;6.75;;;3.45;;
33475;SDS011;19814;48.224;11.422;2023-09-18T02:33:15;4.97;;;3.38;;
33475;SDS011;19814;48.224;11.422;2023-09-18T02:35:40;5.80;;;2.55;;
33475;SDS011;19814;48.224;11.422;2023-09-18T02:38:08;4.10;;;2.67;;
33475;SDS011;19814;48.224;11.422;2023-09-18T02:40:33;5.30;;;3.03;;
33475;SDS011;19814;48.224;11.422;2023-09-18T02:42:59;6.68;;;3.67;;
33475;SDS011;19814;48.224;11.422;2023-09-18T02:45:26;4.82;;;3.20;;
33475;SDS011;19814;48.224;11.422;2023-09-18T02:47:51;6.13;;;3.25;;
33475;SDS011;19814;48.224;11.422;2023-09-18T02:50:17;5.80;;;3.53;;
33475;SDS011;19814;48.224;11.422;2023-09-18T02:52:42;5.22;;;2.85;;
33475;SDS011;19814;48.224;11.422;2023-09-18T02:55:08;6.18;;;3.45;;
33475;SDS011;19814;48.224;11.422;2023-09-18T02:57:35;7.68;;;3.85;;
33475;SDS011;19814;48.224;11.422;2023-09-18T03:00:00;6.30;;;3.67;;
33475;SDS011;19814;48.224;11.422;2023-09-18T03:02:26;6.45;;;3.85;;
33475;SDS011;19814;48.224;11.422;2023-09-18T03:04:51;7.15;;;3.92;;
33475;SDS011;19814;48.224;11.422;2023-09-18T03:07:17;7.78;;;3.85;;
33475;SDS011;19814;48.224;11.422;2023-09-18T03:09:42;5.53;;;3.35;;
33475;SDS011;19814;48.224;11.422;2023-09-18T03:12:08;6.28;;;4.00;;
33475;SDS011;19814;48.224;11.422;2023-09-18T03:14:34;5.70;;;3.38;;
33475;SDS011;19814;48.224;11.422;2023-09-18T03:16:59;5.00;;;3.10;;
33475;SDS011;19814;48.224;11.422;2023-09-18T03:19:25;4.93;;;3.00;;
33475;SDS011;19814;48.224;11.422;2023-09-18T03:21:52;6.88;;;2.75;;
33475;SDS011;19814;48.224;11.422;2023-09-18T03:24:17;3.70;;;2.40;;
33475;SDS011;19814;48.224;11.422;2023-09-18T03:26:43;5.65;;;2.95;;
33475;SDS011;19814;48.224;11.422;2023-09-18T03:29:09;5.22;;;2.92;;
33475;SDS011;19814;48.224;11.422;2023-09-18T03:31:35;6.13;;;2.90;;
33475;SDS011;19814;48.224;11.422;2023-09-18T03:34:01;4.45;;;2.78;;
33475;SDS011;19814;48.224;11.422;2023-09-18T03:36:26;5.53;;;3.50;;
33475;SDS011;19814;48.224;11.422;2023-09-18T03:38:52;5.13;;;3.30;;
33475;SDS011;19814;48.224;11.422;2023-09-18T03:41:17;5.50;;;3.22;;
33475;SDS011;19814;48.224;11.422;2023-09-18T03:43:43;4.65;;;2.58;;
33475;SDS011;19814;48.224;11.422;2023-09-18T03:46:08;4.07;;;2.60;;
33475;SDS011;19814;48.224;11.422;2023-09-18T03:48:34;3.90;;;2.33;;
33475;SDS011;19814;48.224;11.422;2023-09-18T03:51:05;2.20;;;1.73;;
33475;SDS011;19814;48.224;11.422;2023-09-18T03:53:35;3.83;;;1.90;;
33475;SDS011;19814;48.224;11.422;2023-09-18T03:56:01;3.72;;;1.80;;
33475;SDS011;19814;48.224;11.422;2023-09-18T03:58:26;4.05;;;2.30;;
33475;SDS011;19814;48.224;11.422;2023-09-18T04:00:52;3.92;;;2.70;;
33475;SDS011;19814;48.224;11.422;2023-09-18T04:03:18;4.00;;;2.65;;
33475;SDS011;19814;48.224;11.422;2023-09-18T04:05:43;6.35;;;3.17;;
33475;SDS011;19814;48.224;11.422;2023-09-18T04:08:09;5.53;;;2.63;;
33475;SDS011;19814;48.224;11.422;2023-09-18T04:10:36;4.65;;;2.70;;
33475;SDS011;19814;48.224;11.422;2023-09-18T04:13:01;4.90;;;2.80;;
33475;SDS011;19814;48.224;11.422;2023-09-18T04:15:27;6.93;;;3.20;;
33475;SDS011;19814;48.224;11.422;2023-09-18T04:17:55;5.10;;;2.90;;
33475;SDS011;19814;48.224;11.422;2023-09-18T04:20:21;5.90;;;3.08;;
33475;SDS011;19814;48.224;11.422;2023-09-18T04:22:47;6.15;;;3.25;;
33475;SDS011;19814;48.224;11.422;2023-09-18T04:25:52;7.53;;;3.40;;
33475;SDS011;19814;48.224;11.422;2023-09-18T04:28:19;6.78;;;3.17;;
33475;SDS011;19814;48.224;11.422;2023-09-18T04:30:46;6.60;;;3.92;;
33475;SDS011;19814;48.224;11.422;2023-09-18T04:33:14;6.22;;;3.72;;
33475;SDS011;19814;48.224;11.422;2023-09-18T04:35:40;5.57;;;2.90;;
33475;SDS011;19814;48.224;11.422;2023-09-18T04:38:07;6.18;;;3.15;;
33475;SDS011;19814;48.224;11.422;2023-09-18T04:40:33;6.35;;;3.13;;
33475;SDS011;19814;48.224;11.422;2023-09-18T04:42:59;5.65;;;3.38;;
33475;SDS011;19814;48.224;11.422;2023-09-18T04:45:25;6.35;;;3.47;;
33475;SDS011;19814;48.224;11.422;2023-09-18T04:47:52;8.15;;;3.85;;
33475;SDS011;19814;48.224;11.422;2023-09-18T04:50:17;4.60;;;2.78;;
33475;SDS011;19814;48.224;11.422;2023-09-18T04:52:43;4.35;;;2.83;;
33475;SDS011;19814;48.224;11.422;2023-09-18T04:55:09;5.57;;;3.03;;
33475;SDS011;19814;48.224;11.422;2023-09-18T04:57:36;4.93;;;2.88;;
33475;SDS011;19814;48.224;11.422;2023-09-18T05:00:02;5.00;;;2.95;;
33475;SDS011;19814;48.224;11.422;2023-09-18T05:02:32;7.95;;;3.72;;
33475;SDS011;19814;48.224;11.422;2023-09-18T05:04:59;5.03;;;3.47;;
33475;SDS011;19814;48.224;11.422;2023-09-18T05:07:25;7.30;;;4.15;;
33475;SDS011;19814;48.224;11.422;2023-09-18T05:09:51;7.03;;;3.35;;
33475;SDS011;19814;48.224;11.422;2023-09-18T05:12:17;5.15;;;3.40;;
33475;SDS011;19814;48.224;11.422;2023-09-18T05:14:43;6.70;;;3.28;;
33475;SDS011;19814;48.224;11.422;2023-09-18T05:17:09;5.45;;;3.45;;
33475;SDS011;19814;48.224;11.422;2023-09-18T05:19:38;5.22;;;3.17;;
33475;SDS011;19814;48.224;11.422;2023-09-18T05:22:04;6.18;;;3.78;;
33475;SDS011;19814;48.224;11.422;2023-09-18T05:24:30;5.35;;;3.58;;
33475;SDS011;19814;48.224;11.422;2023-09-18T05:26:55;7.15;;;4.32;;
33475;SDS011;19814;48.224;11.422;2023-09-18T05:29:21;5.65;;;3.63;;
33475;SDS011;19814;48.224;11.422;2023-09-18T05:31:46;5.65;;;3.42;;
33475;SDS011;19814;48.224;11.422;2023-09-18T05:34:12;5.43;;;3.47;;
33475;SDS011;19814;48.224;11.422;2023-09-18T05:36:38;9.93;;;3.42;;
33475;SDS011;19814;48.224;11.422;2023-09-18T05:39:04;4.95;;;3.08;;
33475;SDS011;19814;48.224;11.422;2023-09-18T05:41:30;5.88;;;3.10;;
33475;SDS011;19814;48.224;11.422;2023-09-18T05:43:56;7.63;;;3.30;;
33475;SDS011;19814;48.224;11.422;2023-09-18T05:46:22;8.48;;;3.67;;
33475;SDS011;19814;48.224;11.422;2023-09-18T05:48:47;6.53;;;4.03;;
33475;SDS011;19814;48.224;11.422;2023-09-18T05:51:13;6.25;;;3.58;;
33475;SDS011;19814;48.224;11.422;2023-09-18T05:53:38;8.23;;;4.20;;
33475;SDS011;19814;48.224;11.422;2023-09-18T05:56:04;7.03;;;4.55;;
33475;SDS011;19814;48.224;11.422;2023-09-18T05:58:33;7.28;;;4.25;;
33475;SDS011;19814;48.224;11.422;2023-09-18T06:01:00;7.82;;;4.53;;
33475;SDS011;19814;48.224;11.422;2023-09-18T06:03:28;9.65;;;4.88;;
33475;SDS011;19814;48.224;11.422;2023-09-18T06:06:00;7.82;;;4.65;;
33475;SDS011;19814;48.224;11.422;2023-09-18T06:08:29;7.47;;;4.00;;
33475;SDS011;19814;48.224;11.422;2023-09-18T06:10:55;7.20;;;4.00;;
33475;SDS011;19814;48.224;11.422;2023-09-18T06:13:21;6.20;;;3.95;;
33475;SDS011;19814;48.224;11.422;2023-09-18T06:15:48;10.68;;;5.38;;
33475;SDS011;19814;48.224;11.422;2023-09-18T06:18:15;30.50;;;15.60;;
33475;SDS011;19814;48.224;11.422;2023-09-18T06:20:41;14.35;;;6.10;;
33475;SDS011;19814;48.224;11.422;2023-09-18T06:23:08;8.90;;;4.97;;
33475;SDS011;19814;48.224;11.422;2023-09-18T06:25:34;8.10;;;4.97;;
33475;SDS011;19814;48.224;11.422;2023-09-18T06:27:59;7.35;;;4.78;;
33475;SDS011;19814;48.224;11.422;2023-09-18T06:30:27;7.05;;;4.63;;
33475;SDS011;19814;48.224;11.422;2023-09-18T06:32:54;7.43;;;4.53;;
33475;SDS011;19814;48.224;11.422;2023-09-18T06:35:20;7.47;;;4.43;;
33475;SDS011;19814;48.224;11.422;2023-09-18T06:37:45;8.52;;;4.45;;
33475;SDS011;19814;48.224;11.422;2023-09-18T06:40:11;7.72;;;4.25;;
33475;SDS011;19814;48.224;11.422;2023-09-18T06:42:37;8.63;;;4.80;;
33475;SDS011;19814;48.224;11.422;2023-09-18T06:45:03;6.75;;;4.35;;
33475;SDS011;19814;48.224;11.422;2023-09-18T06:47:31;8.68;;;4.88;;
33475;SDS011;19814;48.224;11.422;2023-09-18T06:49:57;6.10;;;4.20;;
33475;SDS011;19814;48.224;11.422;2023-09-18T06:52:23;7.07;;;4.40;;
33475;SDS011;19814;48.224;11.422;2023-09-18T06:54:50;7.38;;;4.78;;
33475;SDS011;19814;48.224;11.422;2023-09-18T06:57:15;7.68;;;4.80;;
33475;SDS011;19814;48.224;11.422;2023-09-18T06:59:41;8.27;;;4.60;;
33475;SDS011;19814;48.224;11.422;2023-09-18T07:02:06;8.57;;;4.82;;
33475;SDS011;19814;48.224;11.422;2023-09-18T07:04:32;6.60;;;4.40;;
33475;SDS011;19814;48.224;11.422;2023-09-18T07:06:57;9.38;;;5.00;;
33475;SDS011;19814;48.224;11.422;2023-09-18T07:09:23;9.43;;;5.47;;
33475;SDS011;19814;48.224;11.422;2023-09-18T07:11:49;6.82;;;4.95;;
33475;SDS011;19814;48.224;11.422;2023-09-18T07:14:15;9.52;;;5.22;;
33475;SDS011;19814;48.224;11.422;2023-09-18T07:16:41;7.30;;;4.55;;
33475;SDS011;19814;48.224;11.422;2023-09-18T07:19:06;6.57;;;4.45;;
33475;SDS011;19814;48.224;11.422;2023-09-18T07:21:36;9.60;;;4.75;;
33475;SDS011;19814;48.224;11.422;2023-09-18T07:24:02;11.45;;;5.05;;
33475;SDS011;19814;48.224;11.422;2023-09-18T07:26:28;7.20;;;4.70;;
33475;SDS011;19814;48.224;11.422;2023-09-18T07:28:54;13.98;;;5.07;;
33475;SDS011;19814;48.224;11.422;2023-09-18T07:31:19;7.60;;;4.35;;
33475;SDS011;19814;48.224;11.422;2023-09-18T07:33:45;8.40;;;4.70;;
33475;SDS011;19814;48.224;11.422;2023-09-18T07:36:10;7.45;;;4.38;;
33475;SDS011;19814;48.224;11.422;2023-09-18T07:38:36;6.82;;;4.53;;
33475;SDS011;19814;48.224;11.422;2023-09-18T07:41:02;6.68;;;4.22;;
33475;SDS011;19814;48.224;11.422;2023-09-18T07:43:28;6.28;;;4.60;;
33475;SDS011;19814;48.224;11.422;2023-09-18T07:45:53;7.18;;;4.30;;
33475;SDS011;19814;48.224;11.422;2023-09-18T07:48:19;7.35;;;4.55;;
33475;SDS011;19814;48.224;11.422;2023-09-18T07:50:47;7.00;;;5.05;;
33475;SDS011;19814;48.224;11.422;2023-09-18T07:53:14;8.85;;;4.80;;
33475;SDS011;19814;48.224;11.422;2023-09-18T07:55:40;8.52;;;4.47;;
33475;SDS011;19814;48.224;11.422;2023-09-18T07:58:06;7.07;;;4.47;;
33475;SDS011;19814;48.224;11.422;2023-09-18T08:00:31;8.13;;;4.22;;
33475;SDS011;19814;48.224;11.422;2023-09-18T08:02:58;10.13;;;4.55;;
33475;SDS011;19814;48.224;11.422;2023-09-18T08:05:25;5.80;;;3.67;;
33475;SDS011;19814;48.224;11.422;2023-09-18T08:07:55;7.45;;;3.92;;
33475;SDS011;19814;48.224;11.422;2023-09-18T08:10:21;8.15;;;4.15;;
33475;SDS011;19814;48.224;11.422;2023-09-18T08:12:47;7.82;;;4.50;;
33475;SDS011;19814;48.224;11.422;2023-09-18T08:15:15;6.25;;;3.72;;
33475;SDS011;19814;48.224;11.422;2023-09-18T08:17:40;9.43;;;3.80;;
33475;SDS011;19814;48.224;11.422;2023-09-18T08:20:07;5.97;;;3.75;;
33475;SDS011;19814;48.224;11.422;2023-09-18T08:22:38;8.65;;;5.50;;
33475;SDS011;19814;48.224;11.422;2023-09-18T08:25:04;6.63;;;4.68;;
33475;SDS011;19814;48.224;11.422;2023-09-18T08:27:33;8.45;;;4.05;;
33475;SDS011;19814;48.224;11.422;2023-09-18T08:29:58;6.15;;;4.30;;
33475;SDS011;19814;48.224;11.422;2023-09-18T08:32:24;7.88;;;4.53;;
33475;SDS011;19814;48.224;11.422;2023-09-18T08:34:49;7.63;;;4.38;;
33475;SDS011;19814;48.224;11.422;2023-09-18T08:37:15;8.32;;;4.72;;
33475;SDS011;19814;48.224;11.422;2023-09-18T08:39:40;6.60;;;4.03;;
33475;SDS011;19814;48.224;11.422;2023-09-18T08:42:07;6.53;;;4.25;;
33475;SDS011;19814;48.224;11.422;2023-09-18T08:44:35;10.30;;;4.50;;
33475;SDS011;19814;48.224;11.422;2023-09-18T08:47:05;6.03;;;4.25;;
33475;SDS011;19814;48.224;11.422;2023-09-18T08:49:33;8.57;;;4.20;;
33475;SDS011;19814;48.224;11.422;2023-09-18T08:51:59;5.80;;;3.80;;
33475;SDS011;19814;48.224;11.422;2023-09-18T08:54:26;7.38;;;3.92;;
33475;SDS011;19814;48.224;11.422;2023-09-18T08:56:53;5.70;;;3.67;;
33475;SDS011;19814;48.224;11.422;2023-09-18T08:59:20;11.90;;;4.20;;
33475;SDS011;19814;48.224;11.422;2023-09-18T09:01:49;7.75;;;4.50;;
33475;SDS011;19814;48.224;11.422;2023-09-18T09:04:15;6.45;;;3.78;;
33475;SDS011;19814;48.224;11.422;2023-09-18T09:06:40;7.70;;;3.85;;
33475;SDS011;19814;48.224;11.422;2023-09-18T09:09:06;8.18;;;4.40;;
33475;SDS011;19814;48.224;11.422;2023-09-18T09:11:33;8.90;;;3.60;;
33475;SDS011;19814;48.224;11.422;2023-09-18T09:14:17;5.72;;;3.45;;
33475;SDS011;19814;48.224;11.422;2023-09-18T09:16:47;7.50;;;3.47;;
33475;SDS011;19814;48.224;11.422;2023-09-18T09:19:15;7.47;;;3.33;;
33475;SDS011;19814;48.224;11.422;2023-09-18T09:21:42;7.53;;;3.50;;
33475;SDS011;19814;48.224;11.422;2023-09-18T09:24:09;5.82;;;3.78;;
33475;SDS011;19814;48.224;11.422;2023-09-18T09:26:44;7.55;;;3.83;;
33475;SDS011;19814;48.224;11.422;2023-09-18T09:29:23;7.40;;;3.40;;
33475;SDS011;19814;48.224;11.422;2023-09-18T09:31:49;5.28;;;3.38;;
33475;SDS011;19814;48.224;11.422;2023-09-18T09:34:23;6.88;;;3.53;;
33475;SDS011;19814;48.224;11.422;2023-09-18T09:36:55;7.55;;;3.50;;
33475;SDS011;19814;48.224;11.422;2023-09-18T09:39:22;4.80;;;3.15;;
33475;SDS011;19814;48.224;11.422;2023-09-18T09:41:53;8.00;;;3.63;;
33475;SDS011;19814;48.224;11.422;2023-09-18T09:44:18;6.45;;;3.35;;
33475;SDS011;19814;48.224;11.422;2023-09-18T09:46:49;7.30;;;2.95;;
33475;SDS011;19814;48.224;11.422;2023-09-18T09:49:16;8.23;;;3.67;;
33475;SDS011;19814;48.224;11.422;2023-09-18T09:51:44;7.70;;;3.22;;
33475;SDS011;19814;48.224;11.422;2023-09-18T09:54:10;7.50;;;3.35;;
33475;SDS011;19814;48.224;11.422;2023-09-18T09:56:40;6.35;;;3.00;;
33475;SDS011;19814;48.224;11.422;2023-09-18T10:01:33;7.57;;;3.30;;
33475;SDS011;19814;48.224;11.422;2023-09-18T10:03:59;9.65;;;2.95;;
33475;SDS011;19814;48.224;11.422;2023-09-18T10:06:32;7.03;;;2.75;;
33475;SDS011;19814;48.224;11.422;2023-09-18T10:08:59;6.57;;;2.80;;
33475;SDS011;19814;48.224;11.422;2023-09-18T10:11:26;6.40;;;2.75;;
33475;SDS011;19814;48.224;11.422;2023-09-18T10:13:55;6.97;;;2.75;;
33475;SDS011;19814;48.224;11.422;2023-09-18T10:16:25;6.50;;;2.42;;
33475;SDS011;19814;48.224;11.422;2023-09-18T10:24:23;6.30;;;2.38;;
33475;SDS011;19814;48.224;11.422;2023-09-18T10:26:57;5.57;;;2.13;;
33475;SDS011;19814;48.224;11.422;2023-09-18T10:29:24;8.00;;;2.28;;
33475;SDS011;19814;48.224;11.422;2023-09-18T10:31:51;8.95;;;2.38;;
33475;SDS011;19814;48.224;11.422;2023-09-18T10:34:18;6.78;;;2.08;;
33475;SDS011;19814;48.224;11.422;2023-09-18T10:36:48;6.90;;;2.25;;
33475;SDS011;19814;48.224;11.422;2023-09-18T10:39:17;7.60;;;2.20;;
33475;SDS011;19814;48.224;11.422;2023-09-18T10:41:51;6.18;;;1.98;;
33475;SDS011;19814;48.224;11.422;2023-09-18T10:44:18;8.48;;;2.53;;
33475;SDS011;19814;48.224;11.422;2023-09-18T10:46:47;6.20;;;1.90;;
33475;SDS011;19814;48.224;11.422;2023-09-18T10:51:40;8.95;;;2.25;;
33475;SDS011;19814;48.224;11.422;2023-09-18T10:54:10;8.82;;;2.15;;
33475;SDS011;19814;48.224;11.422;2023-09-18T10:56:40;9.98;;;2.28;;
33475;SDS011;19814;48.224;11.422;2023-09-18T10:59:08;5.73;;;2.17;;
33475;SDS011;19814;48.224;11.422;2023-09-18T11:01:35;8.63;;;2.33;;
33475;SDS011;19814;48.224;11.422;2023-09-18T11:04:03;9.70;;;2.35;;
33475;SDS011;19814;48.224;11.422;2023-09-18T11:07:00;8.32;;;1.95;;
33475;SDS011;19814;48.224;11.422;2023-09-18T11:09:26;8.05;;;1.92;;
33475;SDS011;19814;48.224;11.422;2023-09-18T11:14:22;7.85;;;1.52;;
33475;SDS011;19814;48.224;11.422;2023-09-18T11:17:05;6.85;;;1.65;;
33475;SDS011;19814;48.224;11.422;2023-09-18T11:19:31;8.10;;;1.85;;
33475;SDS011;19814;48.224;11.422;2023-09-18T11:22:06;8.27;;;2.35;;
33475;SDS011;19814;48.224;11.422;2023-09-18T11:24:37;7.35;;;2.03;;
33475;SDS011;19814;48.224;11.422;2023-09-18T11:27:02;6.65;;;1.80;;
33475;SDS011;19814;48.224;11.422;2023-09-18T11:29:28;5.05;;;1.67;;
33475;SDS011;19814;48.224;11.422;2023-09-18T11:31:56;8.95;;;1.80;;
33475;SDS011;19814;48.224;11.422;2023-09-18T11:34:23;6.50;;;1.60;;
33475;SDS011;19814;48.224;11.422;2023-09-18T11:36:53;4.30;;;1.80;;
33475;SDS011;19814;48.224;11.422;2023-09-18T11:39:36;6.03;;;1.67;;
33475;SDS011;19814;48.224;11.422;2023-09-18T11:44:41;5.90;;;1.45;;
33475;SDS011;19814;48.224;11.422;2023-09-18T11:47:14;8.75;;;1.77;;
33475;SDS011;19814;48.224;11.422;2023-09-18T11:49:48;7.65;;;2.10;;
33475;SDS011;19814;48.224;11.422;2023-09-18T11:52:23;4.78;;;1.60;;
33475;SDS011;19814;48.224;11.422;2023-09-18T11:54:50;5.07;;;1.40;;
33475;SDS011;19814;48.224;11.422;2023-09-18T11:57:19;4.30;;;1.40;;
33475;SDS011;19814;48.224;11.422;2023-09-18T11:59:45;5.43;;;1.30;;
33475;SDS011;19814;48.224;11.422;2023-09-18T12:02:11;4.57;;;1.48;;
33475;SDS011;19814;48.224;11.422;2023-09-18T12:05:05;6.45;;;1.40;;
33475;SDS011;19814;48.224;11.422;2023-09-18T12:07:35;3.88;;;1.60;;
33475;SDS011;19814;48.224;11.422;2023-09-18T12:10:04;8.30;;;1.42;;
33475;SDS011;19814;48.224;11.422;2023-09-18T12:12:30;3.83;;;1.20;;
33475;SDS011;19814;48.224;11.422;2023-09-18T12:14:56;5.97;;;1.30;;
33475;SDS011;19814;48.224;11.422;2023-09-18T12:17:22;5.18;;;1.25;;
33475;SDS011;19814;48.224;11.422;2023-09-18T12:19:53;4.05;;;1.35;;
33475;SDS011;19814;48.224;11.422;2023-09-18T12:22:29;3.78;;;0.80;;
33475;SDS011;19814;48.224;11.422;2023-09-18T12:25:12;3.45;;;1.05;;
33475;SDS011;19814;48.224;11.422;2023-09-18T12:27:39;4.78;;;1.02;;
33475;SDS011;19814;48.224;11.422;2023-09-18T12:30:05;3.35;;;0.88;;
33475;SDS011;19814;48.224;11.422;2023-09-18T12:32:32;4.47;;;1.00;;
33475;SDS011;19814;48.224;11.422;2023-09-18T12:35:00;2.25;;;0.93;;
33475;SDS011;19814;48.224;11.422;2023-09-18T12:37:26;3.35;;;1.33;;
33475;SDS011;19814;48.224;11.422;2023-09-18T12:39:52;2.22;;;0.90;;
33475;SDS011;19814;48.224;11.422;2023-09-18T12:42:21;5.03;;;1.38;;
33475;SDS011;19814;48.224;11.422;2023-09-18T12:44:47;3.47;;;1.17;;
33475;SDS011;19814;48.224;11.422;2023-09-18T12:47:14;3.22;;;1.30;;
33475;SDS011;19814;48.224;11.422;2023-09-18T12:49:40;2.75;;;1.33;;
33475;SDS011;19814;48.224;11.422;2023-09-18T12:52:05;4.05;;;1.10;;
33475;SDS011;19814;48.224;11.422;2023-09-18T12:54:41;2.90;;;0.80;;
33475;SDS011;19814;48.224;11.422;2023-09-18T12:57:09;3.47;;;1.10;;
33475;SDS011;19814;48.224;11.422;2023-09-18T12:59:36;3.03;;;1.10;;
33475;SDS011;19814;48.224;11.422;2023-09-18T13:02:03;4.10;;;1.10;;
33475;SDS011;19814;48.224;11.422;2023-09-18T13:04:38;2.88;;;0.90;;
33475;SDS011;19814;48.224;11.422;2023-09-18T13:07:10;2.63;;;0.98;;
33475;SDS011;19814;48.224;11.422;2023-09-18T13:09:37;2.30;;;0.88;;
33475;SDS011;19814;48.224;11.422;2023-09-18T13:12:03;3.28;;;0.90;;
33475;SDS011;19814;48.224;11.422;2023-09-18T13:14:29;2.45;;;1.10;;
33475;SDS011;19814;48.224;11.422;2023-09-18T13:17:01;4.47;;;0.98;;
33475;SDS011;19814;48.224;11.422;2023-09-18T13:19:29;3.33;;;1.40;;
33475;SDS011;19814;48.224;11.422;2023-09-18T13:21:55;1.70;;;0.90;;
33475;SDS011;19814;48.224;11.422;2023-09-18T13:24:25;4.00;;;1.20;;
33475;SDS011;19814;48.224;11.422;2023-09-18T13:26:52;2.70;;;1.00;;
33475;SDS011;19814;48.224;11.422;2023-09-18T13:29:18;3.15;;;0.90;;
33475;SDS011;19814;48.224;11.422;2023-09-18T13:31:44;3.92;;;0.95;;
33475;SDS011;19814;48.224;11.422;2023-09-18T13:34:09;5.22;;;1.30;;
33475;SDS011;19814;48.224;11.422;2023-09-18T13:36:36;2.90;;;1.30;;
33475;SDS011;19814;48.224;11.422;2023-09-18T13:39:02;3.22;;;1.08;;
33475;SDS011;19814;48.224;11.422;2023-09-18T13:41:28;5.05;;;1.13;;
33475;SDS011;19814;48.224;11.422;2023-09-18T13:43:54;1.98;;;1.00;;
33475;SDS011;19814;48.224;11.422;2023-09-18T13:46:20;3.22;;;1.00;;
33475;SDS011;19814;48.224;11.422;2023-09-18T13:48:46;4.97;;;1.13;;
33475;SDS011;19814;48.224;11.422;2023-09-18T13:51:12;2.05;;;0.82;;
33475;SDS011;19814;48.224;11.422;2023-09-18T13:53:38;3.10;;;0.90;;
33475;SDS011;19814;48.224;11.422;2023-09-18T13:56:06;3.25;;;1.05;;
33475;SDS011;19814;48.224;11.422;2023-09-18T13:58:31;4.18;;;1.05;;
33475;SDS011;19814;48.224;11.422;2023-09-18T14:00:58;2.65;;;1.02;;
33475;SDS011;19814;48.224;11.422;2023-09-18T14:03:24;1.30;;;0.80;;
33475;SDS011;19814;48.224;11.422;2023-09-18T14:05:50;6.65;;;1.15;;
33475;SDS011;19814;48.224;11.422;2023-09-18T14:08:15;3.65;;;0.93;;
33475;SDS011;19814;48.224;11.422;2023-09-18T14:10:43;4.00;;;1.20;;
33475;SDS011;19814;48.224;11.422;2023-09-18T14:13:09;2.78;;;1.15;;
33475;SDS011;19814;48.224;11.422;2023-09-18T14:15:34;2.60;;;1.17;;
33475;SDS011;19814;48.224;11.422;2023-09-18T14:18:00;2.28;;;1.10;;
33475;SDS011;19814;48.224;11.422;2023-09-18T14:20:26;5.68;;;1.40;;
33475;SDS011;19814;48.224;11.422;2023-09-18T14:22:51;4.47;;;0.90;;
33475;SDS011;19814;48.224;11.422;2023-09-18T14:25:17;2.88;;;1.00;;
33475;SDS011;19814;48.224;11.422;2023-09-18T14:27:45;3.78;;;1.05;;
33475;SDS011;19814;48.224;11.422;2023-09-18T14:30:10;1.60;;;0.93;;
33475;SDS011;19814;48.224;11.422;2023-09-18T14:32:37;2.88;;;0.90;;
33475;SDS011;19814;48.224;11.422;2023-09-18T14:35:03;1.90;;;0.93;;
33475;SDS011;19814;48.224;11.422;2023-09-18T14:37:33;2.05;;;0.93;;
33475;SDS011;19814;48.224;11.422;2023-09-18T14:39:59;3.08;;;0.82;;
33475;SDS011;19814;48.224;11.422;2023-09-18T14:42:25;1.85;;;1.00;;
33475;SDS011;19814;48.224;11.422;2023-09-18T14:44:50;2.28;;;1.00;;
33475;SDS011;19814;48.224;11.422;2023-09-18T14:47:16;2.92;;;1.10;;
33475;SDS011;19814;48.224;11.422;2023-09-18T14:49:41;3.05;;;1.33;;
33475;SDS011;19814;48.224;11.422;2023-09-18T14:52:11;2.38;;;0.90;;